Time;durP1;ratioP1;P1;durP2;ratioP2;P2;SDS_P1;SDS_P2;PMS_P1;PMS_P2;Temp;Humidity;BMP_temperature;BMP_pressure;BME280_temperature;BME280_humidity;BME280_pressure;Samples;Min_cycle;Max_cycle;Signal;HPM_P1;HPM_P2
2023/05/02 00:02:06;;;;;;;0.70;0.68;;;14.00;99.90;;;;;;5052805;28;20212;-64
2023/05/02 00:04:34;;;;;;;1.10;0.60;;;14.10;99.90;;;;;;5053404;28;20252;-64
2023/05/02 00:07:05;;;;;;;0.80;0.77;;;14.10;99.90;;;;;;5061008;28;20203;-64
2023/05/02 00:09:33;;;;;;;0.80;0.60;;;14.00;99.90;;;;;;5052665;28;20204;-65
2023/05/02 00:12:01;;;;;;;1.05;0.57;;;14.00;99.90;;;;;;5053936;28;20670;-65
2023/05/02 00:14:30;;;;;;;0.60;0.50;;;14.00;99.90;;;;;;5052836;28;20323;-65
2023/05/02 00:16:57;;;;;;;0.80;0.70;;;14.00;99.90;;;;;;5052630;28;20287;-65
2023/05/02 00:19:25;;;;;;;0.95;0.93;;;14.00;99.90;;;;;;5052475;28;20208;-65
2023/05/02 00:21:53;;;;;;;1.13;0.50;;;14.00;99.90;;;;;;5052781;28;20298;-65
2023/05/02 00:24:23;;;;;;;0.80;0.80;;;14.00;99.90;;;;;;5044696;28;20310;-65
2023/05/02 00:26:50;;;;;;;0.82;0.73;;;14.10;99.90;;;;;;5059895;28;20510;-65
2023/05/02 00:29:18;;;;;;;1.10;1.00;;;14.10;99.90;;;;;;5052211;28;20231;-65
2023/05/02 00:31:46;;;;;;;0.60;0.50;;;14.00;99.90;;;;;;5052692;28;20222;-65
2023/05/02 00:34:14;;;;;;;0.98;0.57;;;14.00;99.90;;;;;;5052105;28;20632;-65
2023/05/02 00:36:42;;;;;;;0.60;0.40;;;13.90;99.90;;;;;;5052606;28;20236;-65
2023/05/02 00:39:10;;;;;;;1.23;1.13;;;13.80;99.90;;;;;;5051170;28;20314;-63
2023/05/02 00:41:39;;;;;;;0.70;0.65;;;13.70;99.90;;;;;;5052522;28;20721;-65
2023/05/02 00:44:07;;;;;;;1.95;0.93;;;13.60;99.90;;;;;;5051870;28;20681;-65
2023/05/02 00:46:35;;;;;;;0.85;0.75;;;13.70;99.90;;;;;;5055806;28;20237;-64
2023/05/02 00:49:03;;;;;;;0.95;0.90;;;13.60;99.90;;;;;;5061309;28;20203;-65
2023/05/02 00:51:33;;;;;;;0.90;0.60;;;13.50;99.90;;;;;;5052223;28;20212;-65
2023/05/02 00:54:03;;;;;;;1.42;1.33;;;13.40;99.90;;;;;;5059788;28;20759;-65
2023/05/02 00:56:30;;;;;;;1.35;1.25;;;13.10;99.90;;;;;;5052153;28;20635;-65
2023/05/02 00:59:00;;;;;;;1.30;1.20;;;13.00;99.90;;;;;;5051619;28;20223;-64
2023/05/02 01:01:39;;;;;;;2.20;1.90;;;12.80;99.90;;;;;;5051898;28;20231;-65
2023/05/02 01:04:21;;;;;;;1.65;1.13;;;12.80;99.90;;;;;;5051472;28;20210;-65
2023/05/02 01:07:05;;;;;;;1.05;0.93;;;12.70;99.90;;;;;;5052185;28;20286;-64
2023/05/02 01:09:42;;;;;;;1.33;1.23;;;12.60;99.90;;;;;;5044962;28;20200;-64
2023/05/02 01:12:16;;;;;;;1.50;1.40;;;12.40;99.90;;;;;;5049757;28;20207;-64
2023/05/02 01:14:53;;;;;;;1.58;1.02;;;12.50;99.90;;;;;;5051779;28;20261;-65
2023/05/02 01:17:26;;;;;;;1.23;1.13;;;12.40;99.90;;;;;;5051501;28;20727;-64
2023/05/02 01:19:57;;;;;;;1.55;1.45;;;12.50;99.90;;;;;;5051261;28;20675;-65
2023/05/02 01:22:29;;;;;;;2.08;1.50;;;12.70;99.90;;;;;;5052083;28;20279;-65
2023/05/02 01:25:08;;;;;;;3.33;3.03;;;12.70;99.90;;;;;;5051502;28;20232;-64
2023/05/02 01:27:47;;;;;;;1.73;1.55;;;12.50;99.90;;;;;;5051669;28;20203;-65
2023/05/02 01:30:18;;;;;;;2.75;2.03;;;12.50;99.90;;;;;;5050993;28;20212;-65
2023/05/02 01:32:48;;;;;;;3.28;2.05;;;12.60;99.90;;;;;;5051368;28;20204;-65
2023/05/02 01:35:17;;;;;;;2.20;2.00;;;12.70;99.90;;;;;;5050986;28;20247;-66
2023/05/02 01:37:46;;;;;;;2.40;2.20;;;12.60;99.90;;;;;;5051322;28;20294;-65
2023/05/02 01:40:18;;;;;;;2.20;2.00;;;12.60;99.90;;;;;;5050684;28;20303;-66
2023/05/02 01:42:48;;;;;;;2.15;1.48;;;12.60;99.90;;;;;;5052182;28;20730;-65
2023/05/02 01:45:19;;;;;;;1.85;1.60;;;12.50;99.90;;;;;;5050986;28;20234;-65
2023/05/02 01:47:47;;;;;;;2.42;2.22;;;12.40;99.90;;;;;;5059086;28;20564;-65
2023/05/02 01:50:21;;;;;;;2.40;2.20;;;12.40;99.90;;;;;;5050275;28;20287;-65
2023/05/02 01:52:51;;;;;;;2.65;2.55;;;12.40;99.90;;;;;;5049897;28;20639;-65
2023/05/02 01:55:20;;;;;;;2.45;2.25;;;12.50;99.90;;;;;;5060073;28;20242;-65
2023/05/02 01:57:50;;;;;;;3.20;2.33;;;12.60;99.90;;;;;;5051028;28;20287;-65
2023/05/02 02:00:21;;;;;;;2.97;2.30;;;12.50;99.90;;;;;;5050638;28;20286;-65
2023/05/02 02:02:51;;;;;;;3.70;2.13;;;12.50;99.90;;;;;;5050929;28;20210;-65
2023/05/02 02:05:20;;;;;;;2.30;1.55;;;12.50;99.90;;;;;;5050455;28;20718;-64
2023/05/02 02:07:48;;;;;;;1.75;1.65;;;12.60;99.90;;;;;;5050815;28;20761;-66
2023/05/02 02:10:16;;;;;;;3.83;1.75;;;12.70;99.90;;;;;;5049426;28;20200;-66
2023/05/02 02:12:50;;;;;;;1.80;1.52;;;12.80;99.90;;;;;;5050607;28;20730;-66
2023/05/02 02:15:25;;;;;;;2.00;1.90;;;12.80;99.90;;;;;;5050505;28;20310;-65
2023/05/02 02:17:59;;;;;;;3.88;3.33;;;12.90;99.90;;;;;;5050801;28;20290;-64
2023/05/02 02:20:31;;;;;;;1.88;1.77;;;12.80;99.90;;;;;;5050629;28;20203;-65
2023/05/02 02:23:03;;;;;;;1.75;1.60;;;12.70;99.90;;;;;;5051934;28;20217;-65
2023/05/02 02:25:32;;;;;;;4.05;2.90;;;12.70;99.90;;;;;;5047900;28;20627;-65
2023/05/02 02:28:00;;;;;;;3.10;2.80;;;12.60;99.90;;;;;;5060450;28;20208;-65
2023/05/02 02:30:30;;;;;;;2.90;2.47;;;12.50;99.90;;;;;;5051621;28;20556;-65
2023/05/02 02:32:57;;;;;;;1.50;1.40;;;12.50;99.90;;;;;;5058079;28;20213;-64
2023/05/02 02:35:31;;;;;;;2.97;2.72;;;12.60;99.90;;;;;;5057492;28;20304;-65
2023/05/02 02:38:09;;;;;;;3.47;2.95;;;12.50;99.90;;;;;;5057400;28;20199;-65
2023/05/02 02:40:44;;;;;;;3.40;2.70;;;12.40;99.90;;;;;;5061473;28;20724;-65
2023/05/02 02:43:20;;;;;;;4.03;3.13;;;12.70;99.90;;;;;;5056071;28;20209;-65
2023/05/02 02:46:03;;;;;;;2.40;2.17;;;12.80;99.90;;;;;;5053375;28;20231;-64
2023/05/02 02:48:36;;;;;;;3.95;2.72;;;12.80;99.90;;;;;;5056696;28;20206;-65
2023/05/02 02:51:11;;;;;;;2.20;2.10;;;12.60;99.90;;;;;;5056800;28;20290;-65
2023/05/02 02:53:49;;;;;;;2.42;2.22;;;12.50;99.90;;;;;;5055529;28;20214;-64
2023/05/02 02:56:27;;;;;;;3.03;2.67;;;12.40;99.90;;;;;;5053171;28;20315;-65
2023/05/02 02:59:00;;;;;;;2.08;1.92;;;12.40;99.90;;;;;;5059581;28;20243;-64
2023/05/02 03:01:33;;;;;;;3.33;2.55;;;12.50;99.90;;;;;;5050905;28;20298;-65
2023/05/02 03:04:05;;;;;;;3.53;2.55;;;12.40;99.90;;;;;;5054571;28;20247;-65
2023/05/02 03:06:33;;;;;;;3.50;2.08;;;12.40;99.90;;;;;;5058928;28;20640;-66
2023/05/02 03:09:03;;;;;;;2.97;2.63;;;12.40;99.90;;;;;;5058222;28;20208;-66
2023/05/02 03:11:31;;;;;;;3.75;3.45;;;12.50;99.90;;;;;;5062386;28;20215;-65
2023/05/02 03:13:59;;;;;;;2.55;2.35;;;12.70;99.90;;;;;;5058597;28;20217;-66
2023/05/02 03:16:36;;;;;;;2.58;2.38;;;12.70;99.90;;;;;;5060723;28;20708;-66
2023/05/02 03:19:05;;;;;;;5.30;2.67;;;12.80;99.90;;;;;;5052961;28;20253;-65
2023/05/02 03:21:34;;;;;;;3.60;2.78;;;12.80;99.90;;;;;;5059182;28;20231;-65
2023/05/02 03:24:03;;;;;;;1.70;1.30;;;12.70;99.90;;;;;;5056473;28;20689;-66
2023/05/02 03:26:31;;;;;;;2.75;2.55;;;12.70;99.90;;;;;;5045977;28;20204;-65
2023/05/02 03:28:59;;;;;;;5.43;3.65;;;12.60;99.90;;;;;;5053833;28;20636;-65
2023/05/02 03:31:27;;;;;;;3.67;2.65;;;12.50;99.90;;;;;;5054975;28;20204;-64
2023/05/02 03:33:56;;;;;;;4.70;4.00;;;12.40;99.90;;;;;;5053483;28;20211;-65
2023/05/02 03:36:24;;;;;;;4.13;3.05;;;12.20;99.90;;;;;;5053411;28;20208;-65
2023/05/02 03:38:52;;;;;;;2.83;2.40;;;12.30;99.90;;;;;;5053630;28;20239;-65
2023/05/02 03:41:20;;;;;;;3.25;2.97;;;12.30;99.90;;;;;;5053023;28;20327;-65
2023/05/02 03:43:48;;;;;;;5.53;4.05;;;12.30;99.90;;;;;;5053463;28;20283;-65
2023/05/02 03:46:15;;;;;;;4.82;4.38;;;12.20;99.90;;;;;;5052896;28;20669;-65
2023/05/02 03:48:45;;;;;;;4.18;3.45;;;12.20;99.90;;;;;;5053524;28;20212;-65
2023/05/02 03:51:14;;;;;;;4.05;3.00;;;12.30;99.90;;;;;;5054061;28;20283;-65
2023/05/02 03:53:42;;;;;;;5.10;3.08;;;12.40;99.90;;;;;;5058799;28;20208;-66
2023/05/02 03:56:10;;;;;;;5.47;3.60;;;12.50;99.90;;;;;;5064582;28;20713;-66
2023/05/02 03:58:38;;;;;;;5.47;4.13;;;12.60;99.90;;;;;;5063180;28;20282;-65
2023/05/02 04:01:13;;;;;;;4.53;3.13;;;12.70;99.90;;;;;;5064575;28;20314;-64
2023/05/02 04:03:41;;;;;;;3.95;3.13;;;12.80;99.90;;;;;;5050060;28;20290;-65
2023/05/02 04:06:09;;;;;;;3.75;2.97;;;12.80;99.90;;;;;;5052611;28;20314;-65
2023/05/02 04:08:39;;;;;;;4.53;3.88;;;12.80;99.90;;;;;;5053126;28;20215;-65
2023/05/02 04:11:07;;;;;;;3.90;3.60;;;12.60;99.90;;;;;;5052711;28;20204;-65
2023/05/02 04:13:34;;;;;;;4.18;3.45;;;12.50;99.90;;;;;;5048047;28;20637;-66
2023/05/02 04:16:03;;;;;;;3.00;2.40;;;12.40;99.90;;;;;;5052496;28;20234;-64
2023/05/02 04:18:31;;;;;;;3.38;2.78;;;12.50;99.90;;;;;;5053945;28;20196;-65
2023/05/02 04:20:59;;;;;;;3.08;2.88;;;12.40;99.90;;;;;;5060229;28;20302;-64
2023/05/02 04:23:27;;;;;;;3.95;3.47;;;12.50;99.90;;;;;;5058487;28;20245;-65
2023/05/02 04:25:56;;;;;;;5.22;3.70;;;12.50;99.90;;;;;;5058741;28;20356;-64
2023/05/02 04:28:24;;;;;;;2.92;2.63;;;12.50;99.90;;;;;;5060092;28;20272;-65
2023/05/02 04:30:52;;;;;;;3.72;3.33;;;12.60;99.90;;;;;;5052075;28;20199;-64
2023/05/02 04:33:20;;;;;;;3.33;3.05;;;12.70;99.90;;;;;;5060760;28;20677;-63
2023/05/02 04:35:48;;;;;;;3.67;3.38;;;12.80;99.90;;;;;;5058789;28;20316;-65
2023/05/02 04:38:16;;;;;;;3.88;3.22;;;12.70;99.90;;;;;;5062626;28;20207;-65
2023/05/02 04:40:44;;;;;;;4.38;3.10;;;12.60;99.90;;;;;;5056969;28;20235;-66
2023/05/02 04:43:13;;;;;;;4.60;3.58;;;12.60;99.90;;;;;;5058394;28;20286;-64
2023/05/02 04:45:41;;;;;;;2.65;2.45;;;12.70;99.90;;;;;;5058548;28;20216;-64
2023/05/02 04:48:09;;;;;;;4.90;4.50;;;12.60;99.90;;;;;;5056373;28;20277;-64
2023/05/02 04:50:37;;;;;;;4.68;3.40;;;12.70;99.90;;;;;;5060414;28;20208;-64
2023/05/02 04:53:05;;;;;;;3.75;3.45;;;12.80;99.90;;;;;;5059255;28;20217;-64
2023/05/02 04:55:34;;;;;;;5.13;4.68;;;12.90;99.90;;;;;;5067885;28;20314;-64
2023/05/02 04:58:01;;;;;;;3.45;3.15;;;12.90;99.90;;;;;;5060565;28;20549;-64
2023/05/02 05:00:31;;;;;;;5.20;3.80;;;12.90;99.90;;;;;;5055511;28;20369;-65
2023/05/02 05:02:58;;;;;;;3.20;2.95;;;12.90;99.90;;;;;;5058841;28;20200;-65
2023/05/02 05:05:28;;;;;;;2.40;2.20;;;12.70;99.90;;;;;;5057170;28;20239;-64
2023/05/02 05:07:56;;;;;;;2.67;2.40;;;12.80;99.90;;;;;;5060851;28;20689;-65
2023/05/02 05:10:25;;;;;;;5.70;4.82;;;12.80;99.90;;;;;;5053461;28;20543;-64
2023/05/02 05:12:53;;;;;;;4.10;3.70;;;13.00;99.90;;;;;;5050534;28;20285;-64
2023/05/02 05:15:22;;;;;;;4.05;2.88;;;13.10;99.90;;;;;;5056191;28;20230;-64
2023/05/02 05:17:51;;;;;;;4.22;2.60;;;13.10;99.90;;;;;;5064213;28;20227;-64
2023/05/02 05:20:19;;;;;;;4.10;3.75;;;13.10;99.90;;;;;;5056531;28;20701;-64
2023/05/02 05:22:47;;;;;;;5.38;3.75;;;12.90;99.90;;;;;;5055810;28;20214;-64
2023/05/02 05:25:15;;;;;;;4.03;3.75;;;12.70;99.90;;;;;;5050716;28;20244;-64
2023/05/02 05:27:43;;;;;;;3.80;3.03;;;12.80;99.90;;;;;;5050820;28;20223;-65
2023/05/02 05:30:11;;;;;;;4.40;4.00;;;12.80;99.90;;;;;;5050962;28;20192;-64
2023/05/02 05:32:39;;;;;;;4.80;3.45;;;12.90;99.90;;;;;;5042862;28;20287;-64
2023/05/02 05:35:10;;;;;;;4.38;3.25;;;13.00;99.90;;;;;;5051252;28;20632;-64
2023/05/02 05:37:38;;;;;;;4.53;4.10;;;13.20;99.90;;;;;;5051091;28;20246;-64
2023/05/02 05:40:08;;;;;;;4.13;3.15;;;13.20;99.90;;;;;;5050452;28;20203;-64
2023/05/02 05:42:36;;;;;;;3.20;2.90;;;13.20;99.90;;;;;;5053552;28;20283;-64
2023/05/02 05:45:04;;;;;;;4.85;3.08;;;13.20;99.90;;;;;;5056853;28;20227;-64
2023/05/02 05:47:32;;;;;;;4.53;3.08;;;13.20;99.90;;;;;;5059838;28;20204;-65
2023/05/02 05:50:00;;;;;;;4.97;4.30;;;13.20;99.90;;;;;;5057857;28;20210;-63
2023/05/02 05:52:30;;;;;;;3.22;2.63;;;13.30;99.90;;;;;;5057481;28;20203;-64
2023/05/02 05:54:58;;;;;;;2.17;2.08;;;13.30;99.90;;;;;;5057507;28;20812;-64
2023/05/02 05:57:26;;;;;;;3.05;2.70;;;13.40;99.90;;;;;;5051860;28;20208;-64
2023/05/02 05:59:54;;;;;;;2.63;2.42;;;13.50;99.90;;;;;;5050623;28;20209;-64
2023/05/02 06:02:22;;;;;;;7.05;3.47;;;13.50;99.90;;;;;;5056080;28;20243;-64
2023/05/02 06:04:50;;;;;;;3.22;2.92;;;13.30;99.90;;;;;;5055698;28;20274;-65
2023/05/02 06:07:18;;;;;;;4.13;3.42;;;13.30;99.90;;;;;;5057596;28;20287;-64
2023/05/02 06:09:47;;;;;;;2.85;2.42;;;13.40;99.90;;;;;;5056221;28;20209;-64
2023/05/02 06:12:16;;;;;;;4.75;4.20;;;13.40;99.90;;;;;;5048948;28;20298;-64
2023/05/02 06:14:44;;;;;;;4.72;3.58;;;13.50;99.90;;;;;;5055303;28;20732;-64
2023/05/02 06:17:12;;;;;;;3.20;2.83;;;13.60;99.90;;;;;;5056721;28;20625;-64
2023/05/02 06:19:40;;;;;;;3.50;3.13;;;13.70;99.90;;;;;;5050398;28;20238;-64
2023/05/02 06:22:07;;;;;;;4.70;2.47;;;13.80;99.90;;;;;;5049807;28;20315;-64
2023/05/02 06:24:36;;;;;;;4.40;3.88;;;13.70;99.90;;;;;;5051740;28;20702;-64
2023/05/02 06:27:05;;;;;;;3.15;2.78;;;13.70;99.90;;;;;;5050570;28;20214;-64
2023/05/02 06:29:33;;;;;;;3.38;2.75;;;13.70;99.90;;;;;;5049994;28;20218;-64
2023/05/02 06:32:01;;;;;;;3.85;3.55;;;13.70;99.90;;;;;;5050138;28;20203;-64
2023/05/02 06:34:31;;;;;;;2.08;1.95;;;13.50;99.90;;;;;;5046091;28;20228;-64
2023/05/02 06:37:00;;;;;;;2.80;2.60;;;13.40;99.90;;;;;;5042673;28;20314;-64
2023/05/02 06:39:28;;;;;;;5.50;4.90;;;13.40;99.90;;;;;;5054372;28;20576;-64
2023/05/02 06:41:57;;;;;;;4.35;3.95;;;13.60;99.90;;;;;;5055843;28;20233;-64
2023/05/02 06:44:26;;;;;;;3.92;3.03;;;13.60;99.90;;;;;;5057150;28;20357;-64
2023/05/02 06:46:55;;;;;;;3.40;2.80;;;13.60;99.90;;;;;;5061843;28;20211;-64
2023/05/02 06:49:23;;;;;;;2.95;2.75;;;13.60;99.90;;;;;;5061069;28;20211;-64
2023/05/02 06:51:51;;;;;;;3.55;2.00;;;13.70;99.90;;;;;;5056528;28;20287;-64
2023/05/02 06:54:20;;;;;;;3.63;2.97;;;13.70;99.90;;;;;;5063808;28;20250;-64
2023/05/02 06:56:48;;;;;;;3.65;3.40;;;13.80;99.90;;;;;;5059766;28;20551;-64
2023/05/02 06:59:16;;;;;;;3.60;3.30;;;13.70;99.90;;;;;;5060881;28;20223;-64
2023/05/02 07:01:45;;;;;;;3.70;3.10;;;13.70;99.90;;;;;;5059891;28;20220;-64
2023/05/02 07:04:13;;;;;;;4.78;3.92;;;13.60;99.90;;;;;;5061227;28;20277;-64
2023/05/02 07:06:41;;;;;;;2.15;1.90;;;13.60;99.90;;;;;;5059849;28;20671;-64
2023/05/02 07:09:09;;;;;;;2.72;2.47;;;13.70;99.90;;;;;;5055760;28;20658;-63
2023/05/02 07:11:37;;;;;;;1.60;1.50;;;13.80;99.90;;;;;;5055811;28;20267;-64
2023/05/02 07:14:05;;;;;;;4.20;3.80;;;13.80;99.90;;;;;;5056611;28;20633;-64
2023/05/02 07:16:33;;;;;;;2.67;2.33;;;13.80;99.90;;;;;;5057009;28;20318;-64
2023/05/02 07:19:03;;;;;;;2.53;1.45;;;13.80;99.90;;;;;;5062482;28;20265;-64
2023/05/02 07:21:31;;;;;;;2.63;2.20;;;14.00;99.90;;;;;;5055232;28;20251;-64
2023/05/02 07:23:59;;;;;;;3.42;2.70;;;14.20;99.90;;;;;;5059291;28;20286;-65
2023/05/02 07:26:28;;;;;;;3.40;1.70;;;14.20;99.90;;;;;;5057765;28;20208;-65
2023/05/02 07:28:56;;;;;;;2.78;2.55;;;14.20;99.90;;;;;;5052814;28;20255;-64
2023/05/02 07:31:24;;;;;;;1.90;1.80;;;14.20;99.90;;;;;;5055656;28;20204;-67
2023/05/02 07:33:52;;;;;;;3.25;2.20;;;14.30;99.90;;;;;;5058665;28;20204;-65
2023/05/02 07:36:21;;;;;;;3.22;2.60;;;14.40;99.90;;;;;;5048824;28;21203;-65
2023/05/02 07:38:49;;;;;;;2.45;2.25;;;14.40;99.90;;;;;;5042578;28;20204;-64
2023/05/02 07:41:17;;;;;;;1.58;1.25;;;14.30;99.90;;;;;;5054183;28;20230;-65
2023/05/02 07:43:45;;;;;;;3.60;2.15;;;14.30;99.90;;;;;;5057976;28;20204;-65
2023/05/02 07:46:13;;;;;;;1.85;1.75;;;14.40;99.90;;;;;;5060554;28;20312;-65
2023/05/02 07:48:41;;;;;;;1.75;1.65;;;14.50;99.90;;;;;;5054684;28;20208;-65
2023/05/02 07:51:10;;;;;;;2.63;2.03;;;14.40;99.90;;;;;;5058147;28;20199;-65
2023/05/02 07:53:39;;;;;;;1.48;1.35;;;14.30;99.90;;;;;;5060726;28;20207;-65
2023/05/02 07:56:08;;;;;;;1.02;0.70;;;14.40;99.90;;;;;;5058728;28;20246;-65
2023/05/02 07:58:36;;;;;;;2.00;1.90;;;14.50;99.90;;;;;;5056261;28;20612;-65
2023/05/02 08:01:04;;;;;;;2.65;2.42;;;14.60;99.90;;;;;;5051419;28;20550;-64
2023/05/02 08:03:32;;;;;;;2.63;2.42;;;14.60;99.90;;;;;;5054069;28;20356;-63
2023/05/02 08:06:01;;;;;;;1.50;1.30;;;14.50;99.90;;;;;;5060585;28;20285;-64
2023/05/02 08:08:29;;;;;;;2.83;2.28;;;14.40;99.90;;;;;;5052704;28;20670;-65
2023/05/02 08:10:59;;;;;;;1.60;1.35;;;14.40;99.90;;;;;;5059727;28;20213;-65
2023/05/02 08:13:27;;;;;;;1.60;1.30;;;14.40;99.90;;;;;;5052090;28;20242;-64
2023/05/02 08:15:56;;;;;;;1.58;1.27;;;14.40;99.90;;;;;;5057626;28;20761;-64
2023/05/02 08:18:24;;;;;;;0.90;0.90;;;14.40;99.90;;;;;;5057483;28;20266;-64
2023/05/02 08:20:52;;;;;;;6.72;1.67;;;14.40;99.90;;;;;;5061330;28;20211;-65
2023/05/02 08:23:20;;;;;;;1.50;1.40;;;14.40;99.90;;;;;;5055166;28;20223;-65
2023/05/02 08:25:48;;;;;;;1.88;1.75;;;14.40;99.90;;;;;;5059241;28;20224;-65
2023/05/02 08:28:18;;;;;;;2.50;1.33;;;14.50;99.90;;;;;;5056989;28;20350;-65
2023/05/02 08:30:47;;;;;;;1.50;1.05;;;14.70;99.90;;;;;;5059543;28;20670;-64
2023/05/02 08:33:15;;;;;;;0.95;0.75;;;14.90;99.90;;;;;;5054510;28;20659;-64
2023/05/02 08:35:43;;;;;;;1.83;1.35;;;14.90;99.90;;;;;;5055506;28;20223;-65
2023/05/02 08:38:11;;;;;;;2.97;1.35;;;14.90;99.90;;;;;;5057084;28;20202;-65
2023/05/02 08:40:39;;;;;;;1.05;0.98;;;14.80;99.90;;;;;;5060263;28;20303;-65
2023/05/02 08:43:11;;;;;;;1.48;1.30;;;14.70;99.90;;;;;;5055213;28;20241;-64
2023/05/02 08:45:42;;;;;;;2.60;1.35;;;14.70;99.90;;;;;;5056091;28;20223;-66
2023/05/02 08:48:12;;;;;;;2.15;0.95;;;14.90;99.90;;;;;;5053006;28;20223;-65
2023/05/02 08:50:42;;;;;;;0.80;0.75;;;14.90;99.90;;;;;;5055011;28;20242;-63
2023/05/02 08:53:12;;;;;;;1.67;1.30;;;15.10;99.90;;;;;;5056381;28;21062;-64
2023/05/02 08:55:41;;;;;;;3.45;1.17;;;15.10;99.90;;;;;;5058177;28;20792;-65
2023/05/02 08:58:10;;;;;;;1.67;1.20;;;15.30;99.90;;;;;;5055781;28;20286;-65
2023/05/02 09:00:42;;;;;;;1.35;0.98;;;15.50;99.90;;;;;;5059063;28;20226;-64
2023/05/02 09:03:23;;;;;;;1.23;1.13;;;15.60;99.90;;;;;;5057034;28;20259;-64
2023/05/02 09:05:54;;;;;;;1.08;0.98;;;15.60;99.90;;;;;;5057026;28;20235;-64
2023/05/02 09:08:23;;;;;;;2.05;1.85;;;15.80;99.90;;;;;;5057119;28;20235;-64
2023/05/02 09:10:51;;;;;;;0.85;0.77;;;16.00;99.90;;;;;;5057716;28;20684;-64
2023/05/02 09:13:33;;;;;;;0.90;0.60;;;16.20;99.90;;;;;;5056456;28;20655;-64
2023/05/02 09:16:04;;;;;;;1.33;1.25;;;16.70;99.90;;;;;;5054911;28;20306;-64
2023/05/02 09:18:34;;;;;;;1.00;0.60;;;16.90;99.90;;;;;;5052638;28;20219;-64
2023/05/02 09:21:07;;;;;;;0.70;0.70;;;16.90;99.90;;;;;;5054814;28;20678;-65
2023/05/02 09:23:37;;;;;;;1.05;0.95;;;17.10;99.90;;;;;;5055075;28;20322;-64
2023/05/02 09:26:17;;;;;;;1.50;1.35;;;17.20;99.90;;;;;;5055629;28;20313;-64
2023/05/02 09:28:46;;;;;;;0.98;0.82;;;17.10;99.90;;;;;;5051801;28;20237;-64
2023/05/02 09:31:16;;;;;;;0.75;0.60;;;16.80;99.90;;;;;;5054618;28;20208;-64
2023/05/02 09:34:09;;;;;;;1.25;1.05;;;16.80;99.90;;;;;;5055736;28;20796;-64
2023/05/02 09:36:40;;;;;;;0.90;0.85;;;16.70;99.90;;;;;;5055654;28;20207;-64
2023/05/02 09:39:12;;;;;;;1.67;1.10;;;16.70;99.90;;;;;;5060097;28;20207;-65
2023/05/02 09:41:41;;;;;;;1.33;0.70;;;16.50;99.90;;;;;;5055426;28;20289;-64
2023/05/02 09:44:10;;;;;;;1.65;0.88;;;16.30;99.90;;;;;;5050920;28;20307;-64
2023/05/02 09:46:44;;;;;;;0.70;0.70;;;16.10;99.90;;;;;;5054921;28;20213;-64
2023/05/02 09:49:13;;;;;;;0.80;0.80;;;16.00;99.90;;;;;;5062294;28;20573;-64
2023/05/02 09:51:42;;;;;;;0.88;0.88;;;15.90;99.90;;;;;;5058951;28;20220;-64
2023/05/02 09:54:10;;;;;;;1.15;1.05;;;15.90;99.90;;;;;;5051961;28;20573;-64
2023/05/02 09:56:53;;;;;;;0.70;0.50;;;16.10;99.90;;;;;;5055067;28;20617;-64
2023/05/02 09:59:20;;;;;;;0.73;0.65;;;16.10;99.90;;;;;;5058391;28;20681;-64
2023/05/02 10:01:55;;;;;;;0.90;0.73;;;16.20;99.90;;;;;;5057159;28;20283;-64
2023/05/02 10:04:24;;;;;;;1.02;0.93;;;16.30;99.90;;;;;;5052978;28;20626;-64
2023/05/02 10:06:53;;;;;;;1.20;0.65;;;16.60;99.90;;;;;;5055389;28;20203;-65
2023/05/02 10:09:22;;;;;;;1.30;1.20;;;16.60;99.90;;;;;;5054809;28;20264;-64
2023/05/02 10:11:52;;;;;;;1.02;0.50;;;16.80;99.90;;;;;;5052765;28;20257;-64
2023/05/02 10:14:21;;;;;;;0.68;0.52;;;16.70;99.90;;;;;;5056423;28;20646;-64
2023/05/02 10:16:59;;;;;;;0.60;0.60;;;16.80;99.90;;;;;;5052872;28;20560;-63
2023/05/02 10:19:33;;;;;;;1.15;0.50;;;16.80;99.90;;;;;;5053279;28;20223;-65
2023/05/02 10:22:02;;;;;;;0.73;0.73;;;16.80;99.90;;;;;;5058435;28;20206;-64
2023/05/02 10:24:33;;;;;;;0.98;0.57;;;16.70;99.90;;;;;;5057916;28;20721;-64
2023/05/02 10:27:01;;;;;;;0.95;0.88;;;16.70;99.90;;;;;;5055031;28;20205;-64
2023/05/02 10:29:30;;;;;;;0.50;0.30;;;16.80;99.90;;;;;;5055959;28;20261;-63
2023/05/02 10:32:03;;;;;;;2.15;0.50;;;17.00;99.90;;;;;;5055237;28;20222;-65
2023/05/02 10:34:32;;;;;;;1.23;0.70;;;17.20;99.90;;;;;;5055110;28;20248;-64
2023/05/02 10:37:01;;;;;;;0.70;0.40;;;17.20;99.90;;;;;;5055044;28;20683;-64
2023/05/02 10:39:30;;;;;;;0.70;0.60;;;17.40;99.90;;;;;;5050774;28;20214;-65
2023/05/02 10:42:00;;;;;;;0.70;0.50;;;17.40;99.90;;;;;;5055657;28;20236;-64
2023/05/02 10:44:33;;;;;;;0.63;0.50;;;17.80;99.90;;;;;;5054615;28;20693;-64
2023/05/02 10:47:18;;;;;;;1.00;0.90;;;18.40;99.90;;;;;;5056653;28;20648;-64
2023/05/02 10:49:51;;;;;;;0.70;0.50;;;19.20;99.90;;;;;;5054776;28;20229;-65
2023/05/02 10:52:27;;;;;;;0.60;0.40;;;19.80;99.90;;;;;;5051703;28;20203;-65
2023/05/02 10:55:16;;;;;;;0.73;0.43;;;19.80;99.90;;;;;;5048429;28;20630;-65
2023/05/02 10:58:21;;;;;;;0.88;0.77;;;20.10;99.90;;;;;;5048903;28;20691;-64
2023/05/02 11:00:49;;;;;;;0.70;0.65;;;20.70;99.90;;;;;;5055373;28;20298;-65
2023/05/02 11:03:47;;;;;;;0.70;0.65;;;20.60;99.90;;;;;;5051138;28;20270;-65
2023/05/02 11:06:16;;;;;;;0.80;0.50;;;20.50;99.90;;;;;;5052271;28;20319;-64
2023/05/02 11:08:45;;;;;;;1.10;1.02;;;20.50;99.90;;;;;;5053638;28;20204;-64
2023/05/02 11:11:39;;;;;;;0.70;0.60;;;20.90;99.90;;;;;;5058681;28;20213;-64
2023/05/02 11:14:07;;;;;;;0.60;0.50;;;21.20;99.40;;;;;;5056960;28;20279;-65
2023/05/02 11:17:15;;;;;;;0.60;0.40;;;21.30;99.60;;;;;;5051471;28;20213;-65
2023/05/02 11:20:28;;;;;;;0.60;0.40;;;21.40;98.20;;;;;;5044992;28;20651;-65
2023/05/02 11:23:00;;;;;;;0.80;0.63;;;21.00;97.80;;;;;;5054482;28;20204;-65
2023/05/02 11:25:33;;;;;;;0.80;0.60;;;21.10;99.50;;;;;;5055983;28;20649;-66
2023/05/02 11:28:01;;;;;;;0.60;0.40;;;21.30;97.10;;;;;;5056657;28;20247;-65
2023/05/02 11:30:49;;;;;;;1.10;0.90;;;21.30;96.70;;;;;;5058195;28;20700;-65
2023/05/02 11:33:18;;;;;;;0.50;0.40;;;20.90;97.00;;;;;;5058013;28;20329;-65
2023/05/02 11:35:48;;;;;;;0.70;0.57;;;20.90;97.40;;;;;;5060206;28;20314;-65
2023/05/02 11:38:20;;;;;;;0.60;0.38;;;20.70;97.90;;;;;;5059091;28;20286;-66
2023/05/02 11:40:56;;;;;;;0.90;0.52;;;20.40;97.90;;;;;;5055113;28;20240;-65
2023/05/02 11:43:25;;;;;;;0.73;0.70;;;20.20;97.90;;;;;;5059607;28;20249;-65
2023/05/02 11:45:58;;;;;;;0.95;0.85;;;20.10;98.30;;;;;;5062468;28;20748;-65
2023/05/02 11:48:27;;;;;;;0.70;0.57;;;20.40;99.80;;;;;;5056410;28;20794;-65
2023/05/02 11:51:00;;;;;;;1.00;0.73;;;20.50;98.40;;;;;;5054288;28;20209;-65
2023/05/02 11:53:31;;;;;;;1.23;1.02;;;20.80;98.30;;;;;;5056120;28;20673;-65
2023/05/02 11:56:01;;;;;;;0.60;0.40;;;20.90;96.40;;;;;;5058814;28;20238;-65
2023/05/02 11:58:31;;;;;;;0.60;0.40;;;21.20;96.10;;;;;;5057074;28;20290;-65
2023/05/02 12:01:11;;;;;;;0.98;0.73;;;21.40;95.40;;;;;;5060167;28;20233;-64
2023/05/02 12:03:40;;;;;;;0.70;0.70;;;21.10;96.30;;;;;;5052668;28;20585;-64
2023/05/02 12:06:10;;;;;;;1.10;1.10;;;20.70;97.20;;;;;;5105250;22;20235;-69
2023/05/02 12:08:41;;;;;;;1.90;1.00;;;20.00;98.20;;;;;;5056446;28;20693;-69
2023/05/02 12:11:09;;;;;;;0.60;0.40;;;19.60;99.60;;;;;;5045831;28;20296;-69
2023/05/02 12:13:44;;;;;;;0.82;0.63;;;19.10;99.90;;;;;;5051348;28;20200;-68
2023/05/02 12:16:13;;;;;;;1.13;0.82;;;19.00;99.90;;;;;;5049616;28;20220;-68
2023/05/02 12:18:41;;;;;;;0.70;0.70;;;18.60;99.90;;;;;;5040019;28;20197;-69
2023/05/02 12:21:09;;;;;;;0.70;0.60;;;18.50;99.90;;;;;;5040461;28;20200;-68
2023/05/02 12:23:39;;;;;;;0.70;0.60;;;18.60;99.90;;;;;;5044654;28;20259;-69
2023/05/02 12:26:18;;;;;;;0.60;0.47;;;18.70;99.90;;;;;;5040116;28;20243;-68
2023/05/02 12:28:50;;;;;;;0.60;0.60;;;18.90;99.90;;;;;;5041262;28;20235;-66
2023/05/02 12:31:18;;;;;;;0.77;0.70;;;19.20;99.90;;;;;;5044336;28;20203;-69
2023/05/02 12:33:49;;;;;;;1.38;0.50;;;20.00;99.60;;;;;;5043108;28;20196;-69
2023/05/02 12:36:17;;;;;;;0.73;0.60;;;20.30;98.60;;;;;;5040290;28;20224;-68
2023/05/02 12:38:51;;;;;;;0.60;0.40;;;20.50;98.80;;;;;;5044566;28;20208;-68
2023/05/02 12:41:32;;;;;;;0.70;0.43;;;20.80;98.10;;;;;;5044053;28;20212;-69
2023/05/02 12:44:00;;;;;;;0.60;0.40;;;20.70;96.90;;;;;;5040498;28;20275;-68
2023/05/02 12:46:28;;;;;;;1.42;0.65;;;20.80;97.30;;;;;;5041678;28;20677;-68
2023/05/02 12:49:05;;;;;;;0.50;0.40;;;21.40;96.90;;;;;;5040527;28;20229;-67
2023/05/02 12:51:33;;;;;;;0.60;0.40;;;21.40;96.00;;;;;;5041047;28;20950;-68
2023/05/02 12:54:01;;;;;;;0.60;0.50;;;22.10;95.90;;;;;;5039231;28;20209;-69
2023/05/02 12:56:38;;;;;;;0.50;0.30;;;22.40;94.60;;;;;;5040421;28;20255;-68
2023/05/02 12:59:06;;;;;;;0.95;0.47;;;22.30;95.90;;;;;;5040442;28;20305;-68
2023/05/02 13:01:34;;;;;;;0.80;0.50;;;22.80;95.60;;;;;;5039892;28;20209;-68
2023/05/02 13:04:04;;;;;;;1.10;0.47;;;23.40;95.60;;;;;;5040727;28;20203;-67
2023/05/02 13:06:32;;;;;;;0.70;0.65;;;24.20;94.70;;;;;;5038575;28;20599;-68